sensor_id;sensor_type;location;lat;lon;timestamp;temperature;humidity
67598;DHT22;62026;39.230;9.122;2022-07-25T00:01:54;31.20;45.90
67598;DHT22;62026;39.230;9.122;2022-07-25T00:04:20;31.20;46.30
67598;DHT22;62026;39.230;9.122;2022-07-25T00:06:46;31.20;46.50
67598;DHT22;62026;39.230;9.122;2022-07-25T00:09:13;31.10;46.80
67598;DHT22;62026;39.230;9.122;2022-07-25T00:11:39;31.10;47.20
67598;DHT22;62026;39.230;9.122;2022-07-25T00:14:05;31.10;47.60
67598;DHT22;62026;39.230;9.122;2022-07-25T00:16:32;31.10;48.10
67598;DHT22;62026;39.230;9.122;2022-07-25T00:18:58;31.10;48.50
67598;DHT22;62026;39.230;9.122;2022-07-25T00:21:25;31.10;48.80
67598;DHT22;62026;39.230;9.122;2022-07-25T00:23:51;31.00;49.00
67598;DHT22;62026;39.230;9.122;2022-07-25T00:26:17;31.00;49.60
67598;DHT22;62026;39.230;9.122;2022-07-25T00:28:43;31.00;49.90
67598;DHT22;62026;39.230;9.122;2022-07-25T00:31:09;30.90;50.40
67598;DHT22;62026;39.230;9.122;2022-07-25T00:33:37;30.90;50.60
67598;DHT22;62026;39.230;9.122;2022-07-25T00:36:06;30.90;50.90
67598;DHT22;62026;39.230;9.122;2022-07-25T00:38:33;30.90;51.00
67598;DHT22;62026;39.230;9.122;2022-07-25T00:40:59;30.90;51.20
67598;DHT22;62026;39.230;9.122;2022-07-25T00:43:25;30.90;51.70
67598;DHT22;62026;39.230;9.122;2022-07-25T00:45:51;30.90;52.00
67598;DHT22;62026;39.230;9.122;2022-07-25T00:48:17;30.80;52.20
67598;DHT22;62026;39.230;9.122;2022-07-25T00:50:43;30.80;52.30
67598;DHT22;62026;39.230;9.122;2022-07-25T00:53:10;30.70;52.40
67598;DHT22;62026;39.230;9.122;2022-07-25T00:55:36;30.70;52.50
67598;DHT22;62026;39.230;9.122;2022-07-25T00:58:02;30.70;52.50
67598;DHT22;62026;39.230;9.122;2022-07-25T01:00:28;30.70;52.60
67598;DHT22;62026;39.230;9.122;2022-07-25T01:02:54;30.60;52.70
67598;DHT22;62026;39.230;9.122;2022-07-25T01:05:21;30.60;52.50
67598;DHT22;62026;39.230;9.122;2022-07-25T01:07:47;30.60;52.70
67598;DHT22;62026;39.230;9.122;2022-07-25T01:10:13;30.50;52.80
67598;DHT22;62026;39.230;9.122;2022-07-25T01:12:51;30.50;52.70
67598;DHT22;62026;39.230;9.122;2022-07-25T01:15:20;30.50;52.70
67598;DHT22;62026;39.230;9.122;2022-07-25T01:17:48;30.50;52.60
67598;DHT22;62026;39.230;9.122;2022-07-25T01:20:19;30.50;52.50
67598;DHT22;62026;39.230;9.122;2022-07-25T01:22:47;30.40;52.30
67598;DHT22;62026;39.230;9.122;2022-07-25T01:25:15;30.40;52.30
67598;DHT22;62026;39.230;9.122;2022-07-25T01:27:42;30.40;52.10
67598;DHT22;62026;39.230;9.122;2022-07-25T01:30:12;30.40;51.90
67598;DHT22;62026;39.230;9.122;2022-07-25T01:32:42;30.40;51.70
67598;DHT22;62026;39.230;9.122;2022-07-25T01:35:10;30.30;51.40
67598;DHT22;62026;39.230;9.122;2022-07-25T01:37:37;30.30;50.70
67598;DHT22;62026;39.230;9.122;2022-07-25T01:40:03;30.30;50.40
67598;DHT22;62026;39.230;9.122;2022-07-25T01:42:30;30.30;50.00
67598;DHT22;62026;39.230;9.122;2022-07-25T01:44:57;30.20;49.80
67598;DHT22;62026;39.230;9.122;2022-07-25T01:47:23;30.20;49.90
67598;DHT22;62026;39.230;9.122;2022-07-25T01:49:49;30.20;49.60
67598;DHT22;62026;39.230;9.122;2022-07-25T01:52:15;30.20;49.40
67598;DHT22;62026;39.230;9.122;2022-07-25T01:54:41;30.20;49.20
67598;DHT22;62026;39.230;9.122;2022-07-25T01:57:08;30.20;49.00
67598;DHT22;62026;39.230;9.122;2022-07-25T01:59:38;30.20;48.90
67598;DHT22;62026;39.230;9.122;2022-07-25T02:02:09;30.20;48.40
67598;DHT22;62026;39.230;9.122;2022-07-25T02:04:35;30.20;48.40
67598;DHT22;62026;39.230;9.122;2022-07-25T02:07:02;30.20;48.50
67598;DHT22;62026;39.230;9.122;2022-07-25T02:09:29;30.10;48.00
67598;DHT22;62026;39.230;9.122;2022-07-25T02:11:55;30.10;48.00
67598;DHT22;62026;39.230;9.122;2022-07-25T02:14:21;30.10;48.50
67598;DHT22;62026;39.230;9.122;2022-07-25T02:16:48;30.10;48.80
67598;DHT22;62026;39.230;9.122;2022-07-25T02:19:14;30.10;48.90
67598;DHT22;62026;39.230;9.122;2022-07-25T02:21:41;30.00;48.90
67598;DHT22;62026;39.230;9.122;2022-07-25T02:24:08;30.10;49.10
67598;DHT22;62026;39.230;9.122;2022-07-25T02:26:34;30.00;49.20
67598;DHT22;62026;39.230;9.122;2022-07-25T02:29:00;30.00;49.10
67598;DHT22;62026;39.230;9.122;2022-07-25T02:31:26;30.00;49.10
67598;DHT22;62026;39.230;9.122;2022-07-25T02:33:52;30.00;49.00
67598;DHT22;62026;39.230;9.122;2022-07-25T02:36:18;30.00;49.00
67598;DHT22;62026;39.230;9.122;2022-07-25T02:38:44;30.00;49.00
67598;DHT22;62026;39.230;9.122;2022-07-25T02:41:10;30.00;48.90
67598;DHT22;62026;39.230;9.122;2022-07-25T02:43:37;30.00;48.90
67598;DHT22;62026;39.230;9.122;2022-07-25T02:46:03;29.90;48.60
67598;DHT22;62026;39.230;9.122;2022-07-25T02:48:29;29.90;48.60
67598;DHT22;62026;39.230;9.122;2022-07-25T02:50:55;29.90;48.50
67598;DHT22;62026;39.230;9.122;2022-07-25T02:53:21;29.90;49.00
67598;DHT22;62026;39.230;9.122;2022-07-25T02:55:47;29.90;49.80
67598;DHT22;62026;39.230;9.122;2022-07-25T02:58:13;29.80;50.20
67598;DHT22;62026;39.230;9.122;2022-07-25T03:00:39;29.80;50.80
67598;DHT22;62026;39.230;9.122;2022-07-25T03:03:06;29.80;51.40
67598;DHT22;62026;39.230;9.122;2022-07-25T03:05:32;29.80;51.50
67598;DHT22;62026;39.230;9.122;2022-07-25T03:07:58;29.80;51.60
67598;DHT22;62026;39.230;9.122;2022-07-25T03:10:24;29.70;51.70
67598;DHT22;62026;39.230;9.122;2022-07-25T03:12:50;29.70;51.70
67598;DHT22;62026;39.230;9.122;2022-07-25T03:15:16;29.60;51.50
67598;DHT22;62026;39.230;9.122;2022-07-25T03:17:42;29.60;51.70
67598;DHT22;62026;39.230;9.122;2022-07-25T03:20:09;29.50;51.70
67598;DHT22;62026;39.230;9.122;2022-07-25T03:22:35;29.50;52.10
67598;DHT22;62026;39.230;9.122;2022-07-25T03:25:01;29.50;52.10
67598;DHT22;62026;39.230;9.122;2022-07-25T03:27:28;29.50;52.10
67598;DHT22;62026;39.230;9.122;2022-07-25T03:29:55;29.40;52.00
67598;DHT22;62026;39.230;9.122;2022-07-25T03:32:21;29.40;51.80
67598;DHT22;62026;39.230;9.122;2022-07-25T03:34:47;29.40;51.80
67598;DHT22;62026;39.230;9.122;2022-07-25T03:37:14;29.40;51.70
67598;DHT22;62026;39.230;9.122;2022-07-25T03:39:40;29.40;51.50
67598;DHT22;62026;39.230;9.122;2022-07-25T03:42:06;29.40;51.50
67598;DHT22;62026;39.230;9.122;2022-07-25T03:44:32;29.40;51.30
67598;DHT22;62026;39.230;9.122;2022-07-25T03:46:59;29.30;51.40
67598;DHT22;62026;39.230;9.122;2022-07-25T03:49:25;29.30;51.30
67598;DHT22;62026;39.230;9.122;2022-07-25T03:51:51;29.30;51.30
67598;DHT22;62026;39.230;9.122;2022-07-25T03:54:17;29.30;50.70
67598;DHT22;62026;39.230;9.122;2022-07-25T03:56:45;29.30;50.90
67598;DHT22;62026;39.230;9.122;2022-07-25T03:59:15;29.30;50.60
67598;DHT22;62026;39.230;9.122;2022-07-25T04:01:45;29.30;50.30
67598;DHT22;62026;39.230;9.122;2022-07-25T04:04:13;29.20;49.80
67598;DHT22;62026;39.230;9.122;2022-07-25T04:06:40;29.20;49.60
67598;DHT22;62026;39.230;9.122;2022-07-25T04:09:08;29.20;49.90
67598;DHT22;62026;39.230;9.122;2022-07-25T04:11:35;29.20;49.80
67598;DHT22;62026;39.230;9.122;2022-07-25T04:14:03;29.10;49.60
67598;DHT22;62026;39.230;9.122;2022-07-25T04:16:30;29.10;49.70
67598;DHT22;62026;39.230;9.122;2022-07-25T04:18:56;29.10;50.10
67598;DHT22;62026;39.230;9.122;2022-07-25T04:21:23;29.10;50.40
67598;DHT22;62026;39.230;9.122;2022-07-25T04:23:51;29.10;50.70
67598;DHT22;62026;39.230;9.122;2022-07-25T04:26:18;29.00;50.60
67598;DHT22;62026;39.230;9.122;2022-07-25T04:28:44;29.00;51.10
67598;DHT22;62026;39.230;9.122;2022-07-25T04:31:10;29.00;51.30
67598;DHT22;62026;39.230;9.122;2022-07-25T04:33:37;29.00;51.70
67598;DHT22;62026;39.230;9.122;2022-07-25T04:36:04;29.00;51.50
67598;DHT22;62026;39.230;9.122;2022-07-25T04:38:31;29.00;51.80
67598;DHT22;62026;39.230;9.122;2022-07-25T04:40:58;29.00;52.00
67598;DHT22;62026;39.230;9.122;2022-07-25T04:43:24;29.00;51.70
67598;DHT22;62026;39.230;9.122;2022-07-25T04:45:50;28.90;52.00
67598;DHT22;62026;39.230;9.122;2022-07-25T04:48:16;28.90;51.90
67598;DHT22;62026;39.230;9.122;2022-07-25T04:50:42;28.90;52.10
67598;DHT22;62026;39.230;9.122;2022-07-25T04:53:09;28.90;52.20
67598;DHT22;62026;39.230;9.122;2022-07-25T04:55:35;28.90;52.00
67598;DHT22;62026;39.230;9.122;2022-07-25T04:58:04;28.90;52.20
67598;DHT22;62026;39.230;9.122;2022-07-25T05:00:30;28.90;52.10
67598;DHT22;62026;39.230;9.122;2022-07-25T05:02:57;28.90;52.10
67598;DHT22;62026;39.230;9.122;2022-07-25T05:05:23;28.90;52.20
67598;DHT22;62026;39.230;9.122;2022-07-25T05:07:53;28.90;52.00
67598;DHT22;62026;39.230;9.122;2022-07-25T05:10:21;28.90;51.90
67598;DHT22;62026;39.230;9.122;2022-07-25T05:12:47;28.80;51.90
67598;DHT22;62026;39.230;9.122;2022-07-25T05:15:13;28.90;52.00
67598;DHT22;62026;39.230;9.122;2022-07-25T05:17:41;28.90;52.10
67598;DHT22;62026;39.230;9.122;2022-07-25T05:20:08;28.90;52.10
67598;DHT22;62026;39.230;9.122;2022-07-25T05:22:34;28.90;52.20
67598;DHT22;62026;39.230;9.122;2022-07-25T05:25:00;28.90;51.80
67598;DHT22;62026;39.230;9.122;2022-07-25T05:27:29;29.00;51.80
67598;DHT22;62026;39.230;9.122;2022-07-25T05:29:56;29.00;51.70
67598;DHT22;62026;39.230;9.122;2022-07-25T05:32:22;29.00;51.60
67598;DHT22;62026;39.230;9.122;2022-07-25T05:34:48;29.00;51.30
67598;DHT22;62026;39.230;9.122;2022-07-25T05:37:15;29.30;51.50
67598;DHT22;62026;39.230;9.122;2022-07-25T05:39:41;29.70;50.60
67598;DHT22;62026;39.230;9.122;2022-07-25T05:42:07;29.80;49.90
67598;DHT22;62026;39.230;9.122;2022-07-25T05:44:33;29.90;49.70
67598;DHT22;62026;39.230;9.122;2022-07-25T05:47:00;29.90;48.80
67598;DHT22;62026;39.230;9.122;2022-07-25T05:49:26;29.90;48.70
67598;DHT22;62026;39.230;9.122;2022-07-25T05:51:52;29.90;48.50
67598;DHT22;62026;39.230;9.122;2022-07-25T05:54:18;29.90;48.50
67598;DHT22;62026;39.230;9.122;2022-07-25T05:56:44;29.90;48.50
67598;DHT22;62026;39.230;9.122;2022-07-25T05:59:10;29.90;48.40
67598;DHT22;62026;39.230;9.122;2022-07-25T06:01:36;30.00;48.10
67598;DHT22;62026;39.230;9.122;2022-07-25T06:04:02;30.00;47.80
67598;DHT22;62026;39.230;9.122;2022-07-25T06:06:29;30.10;47.60
67598;DHT22;62026;39.230;9.122;2022-07-25T06:08:57;30.10;47.50
67598;DHT22;62026;39.230;9.122;2022-07-25T06:11:23;30.20;47.60
67598;DHT22;62026;39.230;9.122;2022-07-25T06:13:53;30.20;47.20
67598;DHT22;62026;39.230;9.122;2022-07-25T06:16:19;30.20;47.10
67598;DHT22;62026;39.230;9.122;2022-07-25T06:18:45;30.20;47.00
67598;DHT22;62026;39.230;9.122;2022-07-25T06:21:11;30.30;46.80
67598;DHT22;62026;39.230;9.122;2022-07-25T06:23:37;30.30;46.60
67598;DHT22;62026;39.230;9.122;2022-07-25T06:26:07;30.30;46.40
67598;DHT22;62026;39.230;9.122;2022-07-25T06:28:34;30.30;46.40
67598;DHT22;62026;39.230;9.122;2022-07-25T06:31:01;30.40;46.20
67598;DHT22;62026;39.230;9.122;2022-07-25T06:33:28;30.40;46.30
67598;DHT22;62026;39.230;9.122;2022-07-25T06:35:54;30.50;46.10
67598;DHT22;62026;39.230;9.122;2022-07-25T06:38:20;30.50;46.00
67598;DHT22;62026;39.230;9.122;2022-07-25T06:40:46;30.50;46.10
67598;DHT22;62026;39.230;9.122;2022-07-25T06:43:12;30.60;46.00
67598;DHT22;62026;39.230;9.122;2022-07-25T06:45:38;30.60;46.20
67598;DHT22;62026;39.230;9.122;2022-07-25T06:48:04;30.70;45.90
67598;DHT22;62026;39.230;9.122;2022-07-25T06:50:30;30.70;45.70
67598;DHT22;62026;39.230;9.122;2022-07-25T06:52:56;30.80;45.80
67598;DHT22;62026;39.230;9.122;2022-07-25T06:55:22;30.80;46.00
67598;DHT22;62026;39.230;9.122;2022-07-25T06:57:49;30.80;45.80
67598;DHT22;62026;39.230;9.122;2022-07-25T07:00:15;30.80;45.60
67598;DHT22;62026;39.230;9.122;2022-07-25T07:02:51;30.90;45.20
67598;DHT22;62026;39.230;9.122;2022-07-25T07:05:18;31.00;44.90
67598;DHT22;62026;39.230;9.122;2022-07-25T07:07:44;31.10;44.70
67598;DHT22;62026;39.230;9.122;2022-07-25T07:10:10;31.10;44.20
67598;DHT22;62026;39.230;9.122;2022-07-25T07:12:36;31.10;44.10
67598;DHT22;62026;39.230;9.122;2022-07-25T07:15:02;31.20;44.10
67598;DHT22;62026;39.230;9.122;2022-07-25T07:17:29;31.30;44.50
67598;DHT22;62026;39.230;9.122;2022-07-25T07:19:55;31.40;44.60
67598;DHT22;62026;39.230;9.122;2022-07-25T07:22:21;31.30;44.40
67598;DHT22;62026;39.230;9.122;2022-07-25T07:24:47;31.40;44.30
67598;DHT22;62026;39.230;9.122;2022-07-25T07:27:13;31.50;44.10
67598;DHT22;62026;39.230;9.122;2022-07-25T07:29:39;31.60;43.90
67598;DHT22;62026;39.230;9.122;2022-07-25T07:32:05;31.60;44.00
67598;DHT22;62026;39.230;9.122;2022-07-25T07:34:32;31.70;43.80
67598;DHT22;62026;39.230;9.122;2022-07-25T07:36:58;31.90;44.30
67598;DHT22;62026;39.230;9.122;2022-07-25T07:39:24;32.00;44.40
67598;DHT22;62026;39.230;9.122;2022-07-25T07:41:50;32.00;46.10
67598;DHT22;62026;39.230;9.122;2022-07-25T07:44:16;32.00;46.60
67598;DHT22;62026;39.230;9.122;2022-07-25T07:46:42;32.10;46.80
67598;DHT22;62026;39.230;9.122;2022-07-25T07:49:08;32.10;47.60
67598;DHT22;62026;39.230;9.122;2022-07-25T07:51:35;31.90;47.80
67598;DHT22;62026;39.230;9.122;2022-07-25T07:54:01;31.90;47.20
67598;DHT22;62026;39.230;9.122;2022-07-25T07:56:45;31.90;46.90
67598;DHT22;62026;39.230;9.122;2022-07-25T07:59:11;31.90;46.70
67598;DHT22;62026;39.230;9.122;2022-07-25T08:01:37;32.00;46.40
67598;DHT22;62026;39.230;9.122;2022-07-25T08:04:04;32.20;45.20
67598;DHT22;62026;39.230;9.122;2022-07-25T08:06:30;32.40;44.80
67598;DHT22;62026;39.230;9.122;2022-07-25T08:08:56;32.40;44.40
67598;DHT22;62026;39.230;9.122;2022-07-25T08:11:22;32.60;44.10
67598;DHT22;62026;39.230;9.122;2022-07-25T08:13:48;32.80;43.20
67598;DHT22;62026;39.230;9.122;2022-07-25T08:16:14;32.90;42.70
67598;DHT22;62026;39.230;9.122;2022-07-25T08:18:40;33.00;43.50
67598;DHT22;62026;39.230;9.122;2022-07-25T08:21:06;32.80;44.50
67598;DHT22;62026;39.230;9.122;2022-07-25T08:23:33;32.70;45.00
67598;DHT22;62026;39.230;9.122;2022-07-25T08:26:03;32.60;45.10
67598;DHT22;62026;39.230;9.122;2022-07-25T08:28:30;32.50;45.10
67598;DHT22;62026;39.230;9.122;2022-07-25T08:30:56;32.50;45.30
67598;DHT22;62026;39.230;9.122;2022-07-25T08:33:24;32.60;44.90
67598;DHT22;62026;39.230;9.122;2022-07-25T08:35:52;32.90;44.20
67598;DHT22;62026;39.230;9.122;2022-07-25T08:38:21;32.90;44.30
67598;DHT22;62026;39.230;9.122;2022-07-25T08:40:49;32.80;44.60
67598;DHT22;62026;39.230;9.122;2022-07-25T08:43:16;32.80;44.60
67598;DHT22;62026;39.230;9.122;2022-07-25T08:45:45;32.90;44.50
67598;DHT22;62026;39.230;9.122;2022-07-25T08:48:15;32.80;44.60
67598;DHT22;62026;39.230;9.122;2022-07-25T08:50:43;32.90;45.00
67598;DHT22;62026;39.230;9.122;2022-07-25T08:53:12;33.20;45.80
67598;DHT22;62026;39.230;9.122;2022-07-25T08:55:40;33.10;46.80
67598;DHT22;62026;39.230;9.122;2022-07-25T08:58:10;33.00;46.90
67598;DHT22;62026;39.230;9.122;2022-07-25T09:00:39;33.00;47.00
67598;DHT22;62026;39.230;9.122;2022-07-25T09:03:06;32.90;47.60
67598;DHT22;62026;39.230;9.122;2022-07-25T09:05:34;32.90;47.90
67598;DHT22;62026;39.230;9.122;2022-07-25T09:08:09;32.90;48.10
67598;DHT22;62026;39.230;9.122;2022-07-25T09:10:46;32.80;48.30
67598;DHT22;62026;39.230;9.122;2022-07-25T09:13:17;33.00;48.40
67598;DHT22;62026;39.230;9.122;2022-07-25T09:15:50;33.00;48.80
67598;DHT22;62026;39.230;9.122;2022-07-25T09:18:23;32.90;49.00
67598;DHT22;62026;39.230;9.122;2022-07-25T09:20:53;32.90;49.10
67598;DHT22;62026;39.230;9.122;2022-07-25T09:23:33;32.90;49.10
67598;DHT22;62026;39.230;9.122;2022-07-25T09:26:12;32.90;49.20
67598;DHT22;62026;39.230;9.122;2022-07-25T09:28:44;32.90;49.20
67598;DHT22;62026;39.230;9.122;2022-07-25T09:31:14;32.90;49.10
67598;DHT22;62026;39.230;9.122;2022-07-25T09:33:52;32.80;49.50
67598;DHT22;62026;39.230;9.122;2022-07-25T09:36:22;32.90;49.00
67598;DHT22;62026;39.230;9.122;2022-07-25T09:38:56;32.80;48.50
67598;DHT22;62026;39.230;9.122;2022-07-25T09:41:37;32.80;48.10
67598;DHT22;62026;39.230;9.122;2022-07-25T09:44:18;32.80;47.90
67598;DHT22;62026;39.230;9.122;2022-07-25T09:46:56;32.90;47.70
67598;DHT22;62026;39.230;9.122;2022-07-25T09:49:24;32.90;48.10
67598;DHT22;62026;39.230;9.122;2022-07-25T09:51:52;32.90;48.30
67598;DHT22;62026;39.230;9.122;2022-07-25T09:54:19;32.90;48.40
67598;DHT22;62026;39.230;9.122;2022-07-25T09:56:45;32.80;48.30
67598;DHT22;62026;39.230;9.122;2022-07-25T09:59:11;32.90;48.60
67598;DHT22;62026;39.230;9.122;2022-07-25T10:01:45;33.00;48.80
67598;DHT22;62026;39.230;9.122;2022-07-25T10:04:29;33.00;48.70
67598;DHT22;62026;39.230;9.122;2022-07-25T10:07:09;33.10;48.50
67598;DHT22;62026;39.230;9.122;2022-07-25T10:09:58;33.10;48.20
67598;DHT22;62026;39.230;9.122;2022-07-25T10:12:25;33.10;48.50
67598;DHT22;62026;39.230;9.122;2022-07-25T10:17:39;33.30;48.30
67598;DHT22;62026;39.230;9.122;2022-07-25T10:20:08;33.30;47.90
67598;DHT22;62026;39.230;9.122;2022-07-25T10:22:39;33.30;47.60
67598;DHT22;62026;39.230;9.122;2022-07-25T10:25:18;33.30;47.90
67598;DHT22;62026;39.230;9.122;2022-07-25T10:27:50;33.40;47.90
67598;DHT22;62026;39.230;9.122;2022-07-25T10:30:27;33.30;47.20
67598;DHT22;62026;39.230;9.122;2022-07-25T10:33:20;33.20;47.30
67598;DHT22;62026;39.230;9.122;2022-07-25T10:35:46;33.10;48.30
67598;DHT22;62026;39.230;9.122;2022-07-25T10:38:12;33.10;48.30
67598;DHT22;62026;39.230;9.122;2022-07-25T10:43:19;33.10;47.50
67598;DHT22;62026;39.230;9.122;2022-07-25T10:45:56;33.10;46.70
67598;DHT22;62026;39.230;9.122;2022-07-25T10:48:24;33.00;47.20
67598;DHT22;62026;39.230;9.122;2022-07-25T10:56:22;32.90;48.00
67598;DHT22;62026;39.230;9.122;2022-07-25T10:58:56;32.90;48.30
67598;DHT22;62026;39.230;9.122;2022-07-25T11:01:26;32.80;48.10
67598;DHT22;62026;39.230;9.122;2022-07-25T11:03:59;32.80;49.10
67598;DHT22;62026;39.230;9.122;2022-07-25T11:06:33;32.80;50.30
67598;DHT22;62026;39.230;9.122;2022-07-25T11:09:03;32.70;49.20
67598;DHT22;62026;39.230;9.122;2022-07-25T11:11:44;32.70;49.00
67598;DHT22;62026;39.230;9.122;2022-07-25T11:14:17;32.80;49.70
67598;DHT22;62026;39.230;9.122;2022-07-25T11:16:47;32.80;49.80
67598;DHT22;62026;39.230;9.122;2022-07-25T11:21:52;32.70;48.80
67598;DHT22;62026;39.230;9.122;2022-07-25T11:24:20;32.60;49.60
67598;DHT22;62026;39.230;9.122;2022-07-25T11:26:50;32.50;50.30
67598;DHT22;62026;39.230;9.122;2022-07-25T11:29:22;32.60;50.30
67598;DHT22;62026;39.230;9.122;2022-07-25T11:31:56;32.50;51.80
67598;DHT22;62026;39.230;9.122;2022-07-25T11:34:25;32.60;52.30
67598;DHT22;62026;39.230;9.122;2022-07-25T11:36:57;32.50;53.20
67598;DHT22;62026;39.230;9.122;2022-07-25T11:39:29;32.60;53.50
67598;DHT22;62026;39.230;9.122;2022-07-25T11:41:59;32.50;52.60
67598;DHT22;62026;39.230;9.122;2022-07-25T11:47:28;32.80;55.70
67598;DHT22;62026;39.230;9.122;2022-07-25T11:49:58;32.60;54.60
67598;DHT22;62026;39.230;9.122;2022-07-25T11:52:36;32.60;55.30
67598;DHT22;62026;39.230;9.122;2022-07-25T11:55:10;32.70;54.40
67598;DHT22;62026;39.230;9.122;2022-07-25T11:57:43;32.60;56.50
67598;DHT22;62026;39.230;9.122;2022-07-25T12:02:44;32.80;50.20
67598;DHT22;62026;39.230;9.122;2022-07-25T12:05:14;32.70;51.40
67598;DHT22;62026;39.230;9.122;2022-07-25T12:10:17;32.60;54.00
67598;DHT22;62026;39.230;9.122;2022-07-25T12:12:51;32.50;53.80
67598;DHT22;62026;39.230;9.122;2022-07-25T12:15:27;32.40;52.70
67598;DHT22;62026;39.230;9.122;2022-07-25T12:18:14;32.50;51.40
67598;DHT22;62026;39.230;9.122;2022-07-25T12:20:42;32.50;50.60
67598;DHT22;62026;39.230;9.122;2022-07-25T12:23:10;32.60;51.90
67598;DHT22;62026;39.230;9.122;2022-07-25T12:25:43;32.50;52.30
67598;DHT22;62026;39.230;9.122;2022-07-25T12:28:11;32.60;51.20
67598;DHT22;62026;39.230;9.122;2022-07-25T12:30:39;32.60;50.00
67598;DHT22;62026;39.230;9.122;2022-07-25T12:33:06;32.60;50.50
67598;DHT22;62026;39.230;9.122;2022-07-25T12:35:33;32.60;47.80
67598;DHT22;62026;39.230;9.122;2022-07-25T12:38:02;32.70;46.80
67598;DHT22;62026;39.230;9.122;2022-07-25T12:40:28;32.70;47.80
67598;DHT22;62026;39.230;9.122;2022-07-25T12:42:54;32.70;48.40
67598;DHT22;62026;39.230;9.122;2022-07-25T12:45:21;32.70;47.70
67598;DHT22;62026;39.230;9.122;2022-07-25T12:47:48;32.70;49.00
67598;DHT22;62026;39.230;9.122;2022-07-25T12:50:15;32.70;49.80
67598;DHT22;62026;39.230;9.122;2022-07-25T12:52:43;32.60;50.00
67598;DHT22;62026;39.230;9.122;2022-07-25T12:55:13;32.60;50.20
67598;DHT22;62026;39.230;9.122;2022-07-25T12:57:41;32.60;49.20
67598;DHT22;62026;39.230;9.122;2022-07-25T13:00:10;32.70;48.80
67598;DHT22;62026;39.230;9.122;2022-07-25T13:02:39;32.70;48.70
67598;DHT22;62026;39.230;9.122;2022-07-25T13:05:06;32.70;48.30
67598;DHT22;62026;39.230;9.122;2022-07-25T13:07:33;32.70;49.10
67598;DHT22;62026;39.230;9.122;2022-07-25T13:10:00;32.70;48.80
67598;DHT22;62026;39.230;9.122;2022-07-25T13:12:26;32.70;48.40
67598;DHT22;62026;39.230;9.122;2022-07-25T13:14:52;32.70;48.10
67598;DHT22;62026;39.230;9.122;2022-07-25T13:17:19;32.70;49.30
67598;DHT22;62026;39.230;9.122;2022-07-25T13:19:45;32.90;49.40
67598;DHT22;62026;39.230;9.122;2022-07-25T13:22:11;32.90;49.90
67598;DHT22;62026;39.230;9.122;2022-07-25T13:24:37;32.90;52.10
67598;DHT22;62026;39.230;9.122;2022-07-25T13:27:05;32.80;50.80
67598;DHT22;62026;39.230;9.122;2022-07-25T13:29:32;32.80;52.40
67598;DHT22;62026;39.230;9.122;2022-07-25T13:31:58;32.70;52.70
67598;DHT22;62026;39.230;9.122;2022-07-25T13:34:25;32.60;52.50
67598;DHT22;62026;39.230;9.122;2022-07-25T13:36:51;32.50;53.40
67598;DHT22;62026;39.230;9.122;2022-07-25T13:39:18;32.60;52.80
67598;DHT22;62026;39.230;9.122;2022-07-25T13:41:47;32.70;52.40
67598;DHT22;62026;39.230;9.122;2022-07-25T13:44:14;32.70;53.40
67598;DHT22;62026;39.230;9.122;2022-07-25T13:46:41;32.70;57.20
67598;DHT22;62026;39.230;9.122;2022-07-25T13:49:07;32.40;58.80
67598;DHT22;62026;39.230;9.122;2022-07-25T13:51:33;32.30;58.40
67598;DHT22;62026;39.230;9.122;2022-07-25T13:53:59;32.30;58.70
67598;DHT22;62026;39.230;9.122;2022-07-25T13:56:26;32.40;58.30
67598;DHT22;62026;39.230;9.122;2022-07-25T13:58:52;32.40;58.60
67598;DHT22;62026;39.230;9.122;2022-07-25T14:01:18;32.30;59.50
67598;DHT22;62026;39.230;9.122;2022-07-25T14:03:45;32.10;60.10
67598;DHT22;62026;39.230;9.122;2022-07-25T14:06:11;32.00;60.10
67598;DHT22;62026;39.230;9.122;2022-07-25T14:08:40;32.00;60.40
67598;DHT22;62026;39.230;9.122;2022-07-25T14:11:06;32.00;60.60
67598;DHT22;62026;39.230;9.122;2022-07-25T14:13:33;32.00;60.20
67598;DHT22;62026;39.230;9.122;2022-07-25T14:16:00;32.00;60.20
67598;DHT22;62026;39.230;9.122;2022-07-25T14:18:27;32.00;59.00
67598;DHT22;62026;39.230;9.122;2022-07-25T14:20:55;32.00;59.30
67598;DHT22;62026;39.230;9.122;2022-07-25T14:23:21;32.10;59.20
67598;DHT22;62026;39.230;9.122;2022-07-25T14:25:47;32.10;58.90
67598;DHT22;62026;39.230;9.122;2022-07-25T14:28:14;32.10;59.40
67598;DHT22;62026;39.230;9.122;2022-07-25T14:30:40;32.10;58.70
67598;DHT22;62026;39.230;9.122;2022-07-25T14:33:06;32.00;59.90
67598;DHT22;62026;39.230;9.122;2022-07-25T14:35:33;32.10;59.20
67598;DHT22;62026;39.230;9.122;2022-07-25T14:38:00;32.20;58.50
67598;DHT22;62026;39.230;9.122;2022-07-25T14:40:26;32.10;58.40
67598;DHT22;62026;39.230;9.122;2022-07-25T14:42:52;32.00;58.90
67598;DHT22;62026;39.230;9.122;2022-07-25T14:45:18;32.20;57.00
67598;DHT22;62026;39.230;9.122;2022-07-25T14:47:46;32.10;58.80
67598;DHT22;62026;39.230;9.122;2022-07-25T14:50:12;31.90;60.00
67598;DHT22;62026;39.230;9.122;2022-07-25T14:52:38;31.90;61.00
67598;DHT22;62026;39.230;9.122;2022-07-25T14:55:05;31.90;60.30
67598;DHT22;62026;39.230;9.122;2022-07-25T14:57:32;31.90;60.80
67598;DHT22;62026;39.230;9.122;2022-07-25T14:59:58;31.90;60.40
67598;DHT22;62026;39.230;9.122;2022-07-25T15:02:26;31.90;60.00
67598;DHT22;62026;39.230;9.122;2022-07-25T15:04:53;31.80;60.40
67598;DHT22;62026;39.230;9.122;2022-07-25T15:07:19;31.70;60.80
67598;DHT22;62026;39.230;9.122;2022-07-25T15:09:45;31.80;60.50
67598;DHT22;62026;39.230;9.122;2022-07-25T15:12:11;31.70;59.80
67598;DHT22;62026;39.230;9.122;2022-07-25T15:14:39;31.70;60.10
67598;DHT22;62026;39.230;9.122;2022-07-25T15:17:07;31.70;60.40
67598;DHT22;62026;39.230;9.122;2022-07-25T15:19:33;31.60;61.00
67598;DHT22;62026;39.230;9.122;2022-07-25T15:22:00;31.70;61.00
67598;DHT22;62026;39.230;9.122;2022-07-25T15:24:26;31.60;61.10
67598;DHT22;62026;39.230;9.122;2022-07-25T15:26:52;31.60;61.30
67598;DHT22;62026;39.230;9.122;2022-07-25T15:29:18;31.60;61.30
67598;DHT22;62026;39.230;9.122;2022-07-25T15:31:48;31.70;61.20
67598;DHT22;62026;39.230;9.122;2022-07-25T15:34:15;31.70;60.70
67598;DHT22;62026;39.230;9.122;2022-07-25T15:36:41;31.70;60.60
67598;DHT22;62026;39.230;9.122;2022-07-25T15:39:07;31.70;60.50
67598;DHT22;62026;39.230;9.122;2022-07-25T15:41:33;31.70;59.90
67598;DHT22;62026;39.230;9.122;2022-07-25T15:44:00;31.70;60.60
67598;DHT22;62026;39.230;9.122;2022-07-25T15:46:26;31.70;60.70
67598;DHT22;62026;39.230;9.122;2022-07-25T15:48:53;31.70;61.20
67598;DHT22;62026;39.230;9.122;2022-07-25T15:51:22;31.70;61.30
67598;DHT22;62026;39.230;9.122;2022-07-25T15:53:48;31.70;61.10
67598;DHT22;62026;39.230;9.122;2022-07-25T15:56:15;31.60;61.40